Ali Curung Tennant Creek, Australia
Current Conditions -  °F | °C
As of 7:00 AM on Wednesday 26 Nov 2014 (Local Time) from YTNK Reporting Station
Scattered Clouds Scattered Clouds  
Wind Chill: 77°   Ceiling: Unl
Heat Index: 79°   Visibility: 6mi
Dew Point: 68°   Wind: 6mph
Humidity: 74%   Direction: 110°ESE
Pressure: 29.88"   Gusts: NA
Location:  21.02°S, 134.4°E
Report Text: YTNK 252200Z AUTO 11005KT 9999 // SCT094 25/20 Q1012
Loading
Personal Weather Stations






























Interactive Weather Map New forecast layout! Learn more

10-Day Weather Forecast

Advertisements
Track Severe Weather on mobile